KA39

KA39

KA39 091355Z AUTO 11010KT 10SM BKN110 09/M01 A2989 RMK AO2 KA39 091335Z AUTO 12012KT 10SM BKN110 10/M01 A2989 RMK AO2

ka39

Buy BendixKing KA39

Buy BendixKing KA39 - with FREE UK & Europe shipping Used, recertified KA39 Voltage Converter. The KA 39 voltage converter changes 28V to 14V when using .

ka39

KA 39

The KA 39 voltage convertor changes 28V to 14V when using 14V avionics. Light and compact, the KA 39 is easily remote mounted to save space in the cockpit.

ka39

Hotels near Phoenix Regional Airport KA39

Cheap hotels near Phoenix Regional Airport KA39. Hotel offers in the vicinity including evaluations and current prices as well as the distance to the airport in ...

ka39

KA39

Relative Humidity, 70%. Pressure (altimeter), 30.09 in. Hg (1018 hPa). ob, KA39 021335Z AUTO 14007KT 10SM BKN100 BKN120 05/00 A3009 RMK AO2 ...

ka39

KA-39 Bhalki RTO Vehicle Registration Details - DriveSpark

Search KA-39 Bhalki vehicle registration details by vehicle number and trace RTO information, vehicle's owners name and address location of KA-39 registration ...

ka39

KA39-FAL

60065/KA39-(FOX-LT-KFZ-1.5M-2X4) - Falcom - KA39 FOX-3/IN/EN/LT Installation cable w/ Fuse - Texim Europe - KA39-FAL,FOX3/IN/EN Installation Cable.

ka39

Phoenix Regional Airport, KA39, - Airport Information - Great Circle ...

All airport information about Phoenix Regional Airport - KA39 -

ka39

AK-CHIN RGNL (KA39), MARICOPA AZ - FBO fuel prices 50 nm at ...

Current fuel price(s) at KA39: $100.0000 JetA, $100.0000 100LL.

ka39

Ak-Chin Regional Airport (KA39)

Ak-Chin Regional Airport (KA39). Lat: 32.99°NLon: 111.91833°WElev: 1306ft. Fair. 73°F. 23°C. Humidity, 20%. Wind Speed, N 14 MPH. Barometer, 30.04 in.

ka39

Ak-Chin Regional Airport (KA39) - Airport Flights Status - AirNav ...

Ak-Chin Regional Airport (KA39) - Airport Flights Status - AirNav RadarBox Database - Live Flight Tracker, Status, History, Route, Replay, Status, Airports ...

ka39

rto offices

11, Mandya, KA11, 44, Bhalki, KA39. 12, Madikeri, KA12, 45, Chickballapur, KA40. 13, Hassan, KA13, 46, Jnanabharathi, KA41. 14, Shimoga, KA14, 47 ...

ka39

3d model peterhof column ka39

2 Apr 2019 ... peterhof column ka39 3D Model available on Turbo Squid, the world's leading provider of digital 3D models for visualization, films, television, ...

ka39

#KA39 hashtag on Twitter

See Tweets about #KA39 on Twitter. See what people are saying and join the conversation.

ka39

KA-39-85 Datasheet(PDF) - Winchester Electronics Corporation

FOR USE WITH RC-142, KA-39-85 datasheet, KA-39-85 circuit, KA-39-85 data sheet : WINCHESTER, alldatasheet, datasheet, Datasheet search site for ...

ka39

3 bedroom flat for rent, Kelburn Court, Largs, Ayrshire North, KA39 ...

LL Reg 35495/310/20450. LARN1909008. EPC F. This spacious top floor flat is located within popular residential quiet location on the south side of Largs...

ka39

A39 - Ak-Chin Regional Airport - AirNav

KA39, 090235Z AUTO 07004KT 10SM CLR 14/00 A2993 RMK AO2. KCGZ 8nm E, 090256Z AUTO 03003KT 10SM CLR 13/00 A2990 RMK AO2 SLP126 6//// ...

ka39

1.5KA39 Datasheet pdf - AUTOMOTIVE TRANSIENT VOLTAGE ...

1.5KA39 datasheet, 1.5KA39 pdf, 1.5KA39 data sheet, datasheet, data sheet, pdf, General Semiconductor, AUTOMOTIVE TRANSIENT VOLTAGE ...

ka39

Narrow mouth bottle ROTILABO® For dispensing systems, 500 ml ...

Suitable for Sekuroka® soap and disinfectant dispensers plus Art. No. TE53 ... Product details. €8.00/Pack Qty. excl. VAT. | 6 unit(s) per Pack Qty. Art. No. KA39. 1.

ka39

Phoenix Airport, Phoenix Regional (A39/KA39)-Arrivals/Departures ...

Airport Phoenix Regional is located in United States near the city of Phoenix. The international codes of Phoenix Regional airport are ICAO: KA39 and IATA: A39 ...

ka39

Ak-Chin Rgnl Airport, Maricopa, Arizona Weather - AirportView.net ...

Age. 22 min | 11 Feb 08:55 UTC. KA39 110855Z AUTO 14006KT 10SM SCT080 SCT090 BKN110 08/07 A2993 RMK AO2. KA39 wind indicator ...

ka39

KA39 | Weather Report, METAR, TAF, Airport Data | E6BX

KA39, Station ID. 4 character ICAO airport identifier. 300535Z, Date and Time. Day: 30; Time: 05:35 UTC. AUTO. Fully Automated Report. 34009KT, Wind ...

ka39

KAFF 60 cm 1080 m3/hr Chimney (2020)

KAFF 60 cm 1080 m3/hr Chimney (KA39) Review. KAFF ensures quality products are delivered to its customers at the right cost. It offers a wide range of ...

ka39

Squire 3936 KA - 39 Padlock & 915mm X3 Hardened square link ...

Squire Padlocks 3936 KA - 39 Padlock & 915mm X3 Hardened square link Chain - Open Shackle - Keyed Alike.

ka39

1.5KA39 Datasheet PDF - Datasheet4U.com

1.5KA39 AUTOMOTIVE TRANSIENT VOLTAGE SUPPRESSOR Components datasheet pdf data sheet FREE from Datasheet4U.com Datasheet (data sheet) ...

ka39

ka-39 | Kobus & Ané | Leon Stoltz | Flickr

25 Mar 2014 ... Kobus & Ané.

ka39

KA39

Job Code: KA39. FLSA status: Exempt. The above essential functions are representative of major duties of positions in this job classification. Specific duties and.

ka39

Kadeka KA39WR Wine Chiller

FEATURES 31 bottles capacity 6 sliding wooden shelves with stainless steel trim Built in lock Auto defrost function Built-in fan Humidity box Charcoa.

ka39

Kaenon Capitola Polarized Sunglasses | APS

Kaenon Capitola Polarized Sunglasses. SKU. KA39. Be the first to review this product. APS PriceAs low as $179.00. Color. Lens Color: Choose an Option.

ka39

071-1041-01 BendixKing KA-39 | SEAEROSPACE.COM

Detailed avionics part information page for BendixKing 071-1041-01 KA-39 Voltage Converter with price, availability, stock, inventory, features, specifications , ...

ka39

Honda shine ka 39 Karnataka bhalki bidar - Motorcycles ...

Honda shine ka 39 Karnataka bhalki bidar. APMC Market Yard, Bhalki, Karnataka. Dec 15. Seller description. Mohan. Member since Aug 2014 ...

ka39

Kim Adams (ka39) on Pinterest

See what Kim Adams (ka39) has discovered on Pinterest, the world's biggest collection of ideas.

ka39

A39 @ OurAirports

17 May 2019 ... A39 (KA39). Ak-Chin Regional Airport — Maricopa, Arizona, United States · No problem reports Report a problem. Loading map... +−. Satellite.

ka39

Kings Win - KA-39-79 - TNC - TNC JACK - CDM Electronics

KA-39-79 - TNC JACK... Kings RF Connectors are now a division of Winchester Electronics The Kings brand is comprised of hermetically sealed, weatherproof ...

ka39

File:CC2061348 KA 39 Taksaka Pagi Stasiun Tugu.jpg - Wikimedia ...

6 Oct 2019 ... Original file ‎(2,592 × 1,944 pixels, file size: 2.83 MB, MIME type: image/jpeg). File information. Structured data ...

ka39

Quran e Majeed ka 39 waan Surah e Zumar ka Shia Tarjma wa Ta ...

15 Jun 2019 ... Quran e Majeed ka 39 waan Surah e Zumar. ... Quran e Majeed ka 39 waan Surah e Zumar ka Shia Tarjma wa Ta. Ajareresalat.com. Loading.

ka39

Ka 39. 2. Frag_cut - video dailymotion

10 Nov 2019 ... Watch Ka 39. 2. Frag_cut - video dailymotion - Hwnaturkya.Com | شبكة هنا تركيا on dailymotion.

ka39

Dynamo Gaming - DYNAMO IS ON FIRE | HYDRA KA 39 KILLS ...

5 Feb 2020 ... DYNAMO IS ON FIRE | HYDRA KA 39 KILLS | DYNAMO GAMING | PUBG MOBILE.

ka39

Untitled

KA-39-39-403. ALTITUDE, FEET. KA-39-08-501. KA-39-16-706. KA-39-23-303. KA-39-23-902. RESISTIVITY. SP. 20. SPRESISTIVITY. 30 0 20. MV 0. 200.

ka39

Best planers and Consultancy - Home | Facebook

Ka-39,Nadda,Gulshan. (7,720.03 mi) Dhaka, Bangladesh 1214. Get Directions. Highlights info row image. +880 1823-575357. Highlights info row image.

ka39

Comments



Warning: file(keys/13.txt): failed to open stream: No such file or directory in /home/admin/web/vmi320931.contaboserver.net/public_html/theme/footer.php on line 50

Warning: shuffle() expects parameter 1 to be array, boolean given in /home/admin/web/vmi320931.contaboserver.net/public_html/theme/footer.php on line 51

Warning: Invalid argument supplied for foreach() in /home/admin/web/vmi320931.contaboserver.net/public_html/theme/footer.php on line 54


Subscribe hesapetopruts.ml